4XCWR LLHZ-LLHZ

Flight info

Callsign 4XCWR
Flight time 0h 2m
Altitude 0800
Route CIRCUITS
Aircraft C172/L-SD/C

Departure

Time 2026-04-17 13:35
Airport Herzliya Airport (LLHZ)

Arrival

Time 2026-04-17 13:37
Airport Herzliya Airport (LLHZ)
Time Latitude Longitude Altitude Speed Heading
2026-04-17 13:29 32.18058 34.83181 101 ft 0 kts 20°
2026-04-17 13:30 32.18065 34.83185 100 ft 6 kts 39°
2026-04-17 13:31 32.18050 34.83270 103 ft 15 kts 110°
2026-04-17 13:31 32.18016 34.83384 106 ft 14 kts 109°
2026-04-17 13:31 32.17984 34.83494 108 ft 14 kts 112°
2026-04-17 13:31 32.17950 34.83607 112 ft 15 kts 110°
2026-04-17 13:32 32.17918 34.83714 117 ft 13 kts 110°
2026-04-17 13:32 32.17890 34.83807 121 ft 11 kts 110°
2026-04-17 13:32 32.17881 34.83840 121 ft 0 kts 98°
2026-04-17 13:33 32.17911 34.83861 124 ft 3 kts 298°
2026-04-17 13:34 32.17911 34.83859 124 ft 0 kts 287°
2026-04-17 13:34 32.17944 34.83751 120 ft 39 kts 290°
2026-04-17 13:34 32.18059 34.83334 205 ft 62 kts 291°
2026-04-17 13:34 32.18230 34.82834 399 ft 66 kts 321°
2026-04-17 13:35 32.18716 34.82702 672 ft 77 kts
2026-04-17 13:35 32.19074 34.82827 799 ft 82 kts 17°
2026-04-17 13:35 32.19379 34.83739 791 ft 111 kts 104°
2026-04-17 13:35 32.19114 34.84601 782 ft 114 kts 112°
2026-04-17 13:36 32.18749 34.85359 845 ft 95 kts 155°
2026-04-17 13:36 32.18174 34.85321 683 ft 81 kts 202°
2026-04-17 13:36 32.17670 34.85145 505 ft 67 kts 243°
2026-04-17 13:36 32.17632 34.84839 382 ft 54 kts 290°
2026-04-17 13:37 32.17757 34.84368 277 ft 64 kts 290°
2026-04-17 13:37 32.17903 34.83878 142 ft 57 kts 294°
2026-04-17 13:37 32.18005 34.83540 108 ft 38 kts 291°
2026-04-17 13:37 32.18134 34.83100 172 ft 64 kts 291°
2026-04-17 13:38 32.18429 34.82750 379 ft 70 kts 350°
2026-04-17 13:38 32.18951 34.82775 540 ft 75 kts
2026-04-17 13:38 32.19412 34.83090 726 ft 88 kts 71°
2026-04-17 13:38 32.19378 34.83884 764 ft 109 kts 101°
2026-04-17 13:39 32.19126 34.84799 806 ft 127 kts 111°
2026-04-17 13:39 32.18612 34.85477 763 ft 120 kts 194°
2026-04-17 13:39 32.17848 34.85216 752 ft 102 kts 202°
2026-04-17 13:39 32.17645 34.84716 524 ft 76 kts 295°
2026-04-17 13:40 32.17807 34.84191 215 ft 67 kts 292°
2026-04-17 13:40 32.17950 34.83725 118 ft 48 kts 289°
2026-04-17 13:40 32.18068 34.83339 131 ft 61 kts 292°
2026-04-17 13:40 32.18251 34.82876 313 ft 65 kts 317°
2026-04-17 13:41 32.18723 34.82751 456 ft 75 kts
2026-04-17 13:41 32.19236 34.82953 628 ft 84 kts 30°
2026-04-17 13:41 32.19346 34.83631 772 ft 97 kts 104°
2026-04-17 13:41 32.19096 34.84459 827 ft 114 kts 113°
2026-04-17 13:42 32.18741 34.85305 1039 ft 95 kts 163°
2026-04-17 13:42 32.18281 34.85092 929 ft 74 kts 226°
2026-04-17 13:42 32.17822 34.84617 487 ft 92 kts 244°
2026-04-17 13:42 32.17849 34.84062 211 ft 58 kts 295°
2026-04-17 13:43 32.17960 34.83694 115 ft 36 kts 288°
2026-04-17 13:43 32.18079 34.83293 124 ft 67 kts 292°
2026-04-17 13:43 32.18241 34.82805 331 ft 68 kts 315°
2026-04-17 13:43 32.18697 34.82699 537 ft 77 kts
2026-04-17 13:44 32.19218 34.82850 737 ft 81 kts 25°
2026-04-17 13:44 32.19437 34.83524 781 ft 107 kts 98°
2026-04-17 13:44 32.19153 34.84345 844 ft 110 kts 119°
2026-04-17 13:44 32.18731 34.84867 934 ft 72 kts 192°
2026-04-17 13:45 32.18246 34.84657 689 ft 77 kts 214°
2026-04-17 13:45 32.17786 34.84378 454 ft 64 kts 268°
2026-04-17 13:45 32.17888 34.83934 170 ft 54 kts 292°
2026-04-17 13:45 32.17991 34.83590 109 ft 45 kts 290°
2026-04-17 13:46 32.18133 34.83132 232 ft 62 kts 295°
2026-04-17 13:46 32.18403 34.82717 390 ft 69 kts 339°
2026-04-17 13:46 32.18898 34.82760 538 ft 76 kts 20°
2026-04-17 13:46 32.19337 34.83091 717 ft 85 kts 52°
2026-04-17 13:47 32.19389 34.83823 771 ft 106 kts 108°
2026-04-17 13:47 32.19133 34.84711 810 ft 118 kts 112°
2026-04-17 13:47 32.18720 34.85408 842 ft 90 kts 182°
2026-04-17 13:47 32.18126 34.85293 678 ft 85 kts 198°
2026-04-17 13:48 32.17643 34.85070 466 ft 69 kts 270°
2026-04-17 13:48 32.17695 34.84568 320 ft 64 kts 296°
2026-04-17 13:48 32.17853 34.84045 181 ft 65 kts 294°
2026-04-17 13:48 32.17987 34.83599 110 ft 50 kts 290°
2026-04-17 13:49 32.18122 34.83137 176 ft 66 kts 287°
2026-04-17 13:49 32.18357 34.82727 349 ft 70 kts 334°
2026-04-17 13:49 32.18825 34.82730 506 ft 76 kts 12°
2026-04-17 13:49 32.19285 34.82957 728 ft 74 kts 26°
2026-04-17 13:50 32.19446 34.83643 717 ft 106 kts 99°
2026-04-17 13:50 32.19231 34.84493 844 ft 113 kts 110°
2026-04-17 13:50 32.18963 34.85304 914 ft 91 kts 135°
2026-04-17 13:50 32.18442 34.85389 745 ft 77 kts 198°
2026-04-17 13:51 32.17932 34.85233 530 ft 76 kts 208°
2026-04-17 13:51 32.17633 34.84901 367 ft 56 kts 279°
2026-04-17 13:51 32.17728 34.84465 311 ft 56 kts 295°
2026-04-17 13:51 32.17854 34.84036 175 ft 58 kts 294°
2026-04-17 13:52 32.17971 34.83657 113 ft 35 kts 289°
2026-04-17 13:52 32.18099 34.83229 132 ft 70 kts 292°
2026-04-17 13:52 32.18320 34.82760 362 ft 68 kts 332°
2026-04-17 13:52 32.18799 34.82710 535 ft 70 kts 357°
2026-04-17 13:53 32.19269 34.82872 728 ft 73 kts 19°
2026-04-17 13:53 32.19498 34.83445 829 ft 88 kts 94°
2026-04-17 13:53 32.19316 34.84182 876 ft 100 kts 109°
2026-04-17 13:53 32.19073 34.85014 866 ft 110 kts 111°
2026-04-17 13:54 32.18306 34.84857 747 ft 69 kts 231°
2026-04-17 13:54 32.17911 34.84491 556 ft 72 kts 232°
2026-04-17 13:55 32.17974 34.83638 111 ft 35 kts 293°
2026-04-17 13:55 32.18042 34.83416 103 ft 26 kts 290°
2026-04-17 13:55 32.18043 34.83293 102 ft 0 kts 290°
2026-04-17 13:56 32.18040 34.83272 101 ft 5 kts 221°
2026-04-17 13:56 32.18034 34.83269 101 ft 0 kts 197°